Etusivu
METAR-TAF:

METAR-TAF

Lentoasemat :

Quimper, Ranska

Leveyspiiri: 47-58N, Pituuspiiri: 004-10W, korkeus merenpinnasta: 92 m

Tämänhetkinen sää

Tämä raportti tehtiin 38 minuuttia sitten, kello 19.30 UTC
Tuuli 6 kn pohjoisesta
Lämpötila 11°C
Kosteus 82%
Ilmanpaine 1030 hPa
Näkyvyys 10 km tai enemmän
Muutamia pilviä 2800 ft:n korkeudessa

METAR: LFRQ 231930Z AUTO 36006KT 9999 FEW028 11/08 Q1030 NOSIG

Aika: 22:08 (20:08 UTC)

Sääennuste

Tämä raportti tehtiin 3 tuntia ja 8 minuuttia sitten, kello 17.00 UTC
Ennuste voimassa 23. päivästä klo 18 UTC - 24. päivään klo 18 UTC
Tuuli 10 kn pohjoisesta/koillisesta
Näkyvyys 10 km tai enemmän
Hajonneita pilviä 2500 ft:n korkeudessa
Todennäköisyys 30% :
Ajoittain
23. päivästä klo 18 UTC - 23. päivään klo 20 UTC
Tuuli 15 kn pohjoisesta/koillisesta puuskistuen 25 kn:hen

TAF: LFRQ 231700Z 2318/2418 02010KT 9999 BKN025 PROB30 TEMPO 2318/2320 02015G25KT

Säähavainnot ja -ennusteet yli 4000 lentoasemalta (METAR- ja TAF-raportit).

Käytössä olevat sääasemat on merkitty karttaan keltaisilla ja punaisilla pisteillä.

Aseta hiiri pisteen päälle nähdäksesi sääaseman nimen.

Klikkaa sitten nähdäksesi säähavainnot ja -ennusteet.

Kartan vaihtaminen: klikkaa mustalla rastilla varustettuja vihreitä pisteitä, niin voit zoomata sisään; viivalla varustettua vihreää pistettä, niin voit zoomata ulos tai vihreitä nuolia, niin pääset viereisille kartoille.


METAR-TAF: